Time;durP1;ratioP1;P1;durP2;ratioP2;P2;SDS_P1;SDS_P2;PMS_P1;PMS_P2;Temp;Humidity;BMP_temperature;BMP_pressure;BME280_temperature;BME280_humidity;BME280_pressure;Samples;Min_cycle;Max_cycle;Signal;HPM_P1;HPM_P2
2022/11/21 00:01:36;;;;;;;8.90;2.70;;;9.80;99.90;;;;;;5034189;28;20664;-78
2022/11/21 00:04:02;;;;;;;12.27;3.00;;;9.80;99.90;;;;;;5051535;28;20197;-78
2022/11/21 00:06:28;;;;;;;8.77;2.47;;;9.80;99.90;;;;;;5052219;28;20169;-78
2022/11/21 00:08:54;;;;;;;12.43;4.10;;;9.80;99.90;;;;;;5034339;28;20165;-78
2022/11/21 00:11:20;;;;;;;13.02;3.28;;;9.80;99.90;;;;;;5016922;28;20567;-78
2022/11/21 00:13:46;;;;;;;11.93;2.23;;;9.80;99.90;;;;;;5056825;22;20814;-75
2022/11/21 00:16:14;;;;;;;7.27;2.87;;;9.80;99.90;;;;;;5023240;28;20245;-74
2022/11/21 00:18:40;;;;;;;8.07;2.20;;;9.70;99.90;;;;;;5013049;28;20180;-75
2022/11/21 00:21:16;;;;;;;8.30;2.38;;;9.80;99.90;;;;;;5031958;28;20178;-75
2022/11/21 00:23:44;;;;;;;12.13;2.00;;;9.80;99.90;;;;;;5014105;28;20209;-75
2022/11/21 00:26:11;;;;;;;8.07;2.45;;;9.80;99.90;;;;;;5014169;28;20696;-74
2022/11/21 00:28:36;;;;;;;10.00;3.00;;;9.80;99.90;;;;;;5030825;28;20196;-74
2022/11/21 00:31:03;;;;;;;10.83;2.43;;;9.80;99.90;;;;;;5031846;28;20240;-74
2022/11/21 00:33:30;;;;;;;11.48;2.70;;;9.70;99.90;;;;;;5030486;28;20166;-75
2022/11/21 00:35:56;;;;;;;6.53;2.20;;;9.80;99.90;;;;;;5030473;28;20683;-74
2022/11/21 00:38:23;;;;;;;7.35;1.98;;;9.70;99.90;;;;;;5030747;28;20169;-74
2022/11/21 00:40:49;;;;;;;9.60;2.97;;;9.70;99.90;;;;;;5031553;28;20192;-74
2022/11/21 00:43:14;;;;;;;8.57;2.10;;;9.70;99.90;;;;;;5013843;28;20532;-75
2022/11/21 00:45:40;;;;;;;10.20;2.13;;;9.70;99.90;;;;;;5035428;28;20628;-74
2022/11/21 00:48:06;;;;;;;7.30;2.63;;;9.70;99.90;;;;;;5031626;28;20166;-74
2022/11/21 00:50:32;;;;;;;13.43;2.63;;;9.70;99.90;;;;;;5031671;28;20169;-74
2022/11/21 00:52:57;;;;;;;5.27;2.20;;;9.70;99.90;;;;;;5030963;28;20560;-74
2022/11/21 00:55:24;;;;;;;13.20;3.10;;;9.70;99.90;;;;;;5046770;28;20268;-74
2022/11/21 00:57:50;;;;;;;13.52;3.20;;;9.70;99.90;;;;;;5031339;28;20194;-75
2022/11/21 01:00:17;;;;;;;9.25;3.78;;;9.70;99.90;;;;;;5031458;28;20166;-74
2022/11/21 01:02:43;;;;;;;12.00;3.53;;;9.70;99.90;;;;;;5029547;28;20174;-74
2022/11/21 01:05:09;;;;;;;9.50;2.80;;;9.70;99.90;;;;;;5031180;28;20220;-74
2022/11/21 01:07:35;;;;;;;8.50;2.53;;;9.70;99.90;;;;;;5031062;28;20565;-74
2022/11/21 01:10:01;;;;;;;14.35;3.13;;;9.70;99.90;;;;;;5029948;28;20572;-74
2022/11/21 01:12:27;;;;;;;5.33;2.37;;;9.70;99.90;;;;;;5030440;28;20523;-74
2022/11/21 01:14:53;;;;;;;14.30;3.97;;;9.80;99.90;;;;;;5029725;28;20607;-74
2022/11/21 01:17:18;;;;;;;9.10;2.90;;;9.80;99.90;;;;;;5030987;28;20254;-74
2022/11/21 01:19:44;;;;;;;13.10;2.23;;;9.80;99.90;;;;;;5029717;28;20256;-74
2022/11/21 01:22:10;;;;;;;7.90;2.40;;;9.70;99.90;;;;;;5035313;28;20586;-74
2022/11/21 01:24:35;;;;;;;8.23;2.17;;;9.70;99.90;;;;;;5028430;28;20228;-74
2022/11/21 01:27:01;;;;;;;7.93;2.40;;;9.70;99.90;;;;;;5030904;28;20166;-74
2022/11/21 01:29:27;;;;;;;7.07;2.10;;;9.60;99.90;;;;;;5029421;28;20173;-75
2022/11/21 01:31:53;;;;;;;9.70;2.67;;;9.70;99.90;;;;;;5029779;28;20169;-74
2022/11/21 01:34:18;;;;;;;11.00;1.83;;;9.60;99.90;;;;;;5028998;28;20592;-74
2022/11/21 01:36:44;;;;;;;7.97;2.30;;;9.70;99.90;;;;;;5030756;28;20591;-74
2022/11/21 01:39:11;;;;;;;9.00;1.80;;;9.70;99.90;;;;;;5030399;28;20176;-74
2022/11/21 01:41:40;;;;;;;7.95;2.30;;;9.70;99.90;;;;;;5029357;28;20649;-74
2022/11/21 01:44:18;;;;;;;7.55;2.55;;;9.70;99.90;;;;;;5028630;28;20572;-74
2022/11/21 01:46:45;;;;;;;7.28;2.47;;;9.70;99.90;;;;;;5012867;28;20208;-74
2022/11/21 01:49:29;;;;;;;8.48;2.42;;;9.70;99.90;;;;;;5030237;28;20529;-74
2022/11/21 01:52:13;;;;;;;4.10;1.70;;;9.70;99.90;;;;;;5029140;28;20169;-74
2022/11/21 01:54:45;;;;;;;12.73;2.65;;;9.70;99.90;;;;;;5028891;28;20255;-74
2022/11/21 01:57:13;;;;;;;7.07;2.63;;;9.70;99.90;;;;;;5030457;28;20560;-74
2022/11/21 01:59:59;;;;;;;7.40;1.98;;;9.70;99.90;;;;;;5030730;28;20228;-75
2022/11/21 02:02:30;;;;;;;7.90;2.53;;;9.70;99.90;;;;;;5029951;28;20272;-74
2022/11/21 02:04:57;;;;;;;10.88;2.38;;;9.70;99.90;;;;;;5030160;28;20701;-74
2022/11/21 02:07:24;;;;;;;7.47;2.40;;;9.70;99.90;;;;;;5026139;28;20165;-74
2022/11/21 02:09:54;;;;;;;9.73;1.55;;;9.70;99.90;;;;;;5021836;28;20219;-74
2022/11/21 02:12:48;;;;;;;13.85;2.50;;;9.70;99.90;;;;;;5029815;28;20170;-74
2022/11/21 02:15:16;;;;;;;8.70;3.08;;;9.70;99.90;;;;;;5045097;28;20636;-75
2022/11/21 02:17:42;;;;;;;6.90;1.90;;;9.70;99.90;;;;;;5030069;28;20208;-74
2022/11/21 02:20:11;;;;;;;7.57;1.90;;;9.70;99.90;;;;;;5030034;28;20169;-74
2022/11/21 02:22:50;;;;;;;7.55;2.05;;;9.60;99.90;;;;;;5028052;28;20711;-74
2022/11/21 02:25:21;;;;;;;9.88;2.00;;;9.60;99.90;;;;;;5012333;28;20204;-74
2022/11/21 02:27:55;;;;;;;9.35;1.90;;;9.60;99.90;;;;;;5028332;28;20223;-74
2022/11/21 02:30:22;;;;;;;12.23;2.20;;;9.60;99.90;;;;;;5045124;28;20173;-74
2022/11/21 02:32:48;;;;;;;7.80;1.80;;;9.60;99.90;;;;;;5028026;28;20250;-76
2022/11/21 02:35:16;;;;;;;8.47;2.00;;;9.60;99.90;;;;;;5029632;28;20272;-73
2022/11/21 02:37:44;;;;;;;11.13;1.60;;;9.60;99.90;;;;;;5031841;28;20660;-74
2022/11/21 02:40:21;;;;;;;6.30;1.90;;;9.60;99.90;;;;;;5028601;28;20201;-74
2022/11/21 02:43:09;;;;;;;4.72;1.85;;;9.50;99.90;;;;;;5027768;28;20548;-73
2022/11/21 02:45:41;;;;;;;6.18;1.50;;;9.60;99.90;;;;;;5029646;28;20327;-74
2022/11/21 02:48:07;;;;;;;6.40;1.50;;;9.50;99.90;;;;;;5028238;28;20162;-74
2022/11/21 02:50:35;;;;;;;4.10;1.50;;;9.50;99.90;;;;;;5028387;28;20208;-74
2022/11/21 02:53:02;;;;;;;7.60;1.30;;;9.50;99.90;;;;;;5028953;28;20166;-74
2022/11/21 02:55:28;;;;;;;3.92;1.40;;;9.50;99.90;;;;;;5028264;28;20235;-74
2022/11/21 02:57:54;;;;;;;7.50;1.70;;;9.50;99.90;;;;;;5028067;28;20240;-74
2022/11/21 03:00:20;;;;;;;7.05;1.40;;;9.50;99.90;;;;;;5029550;28;20577;-74
2022/11/21 03:02:47;;;;;;;6.57;1.70;;;9.50;99.90;;;;;;5027813;28;20534;-74
2022/11/21 03:05:15;;;;;;;5.80;1.27;;;9.50;99.90;;;;;;5028122;28;20603;-74
2022/11/21 03:07:41;;;;;;;5.75;1.30;;;9.50;99.90;;;;;;5029125;28;20224;-74
2022/11/21 03:10:08;;;;;;;6.33;1.73;;;9.50;99.90;;;;;;5028303;28;20645;-74
2022/11/21 03:12:41;;;;;;;4.50;1.30;;;9.50;99.90;;;;;;5028616;28;20632;-75
2022/11/21 03:15:10;;;;;;;3.17;1.60;;;9.50;99.90;;;;;;5029178;28;20291;-75
2022/11/21 03:17:36;;;;;;;5.45;1.77;;;9.50;99.90;;;;;;5028195;28;20201;-75
2022/11/21 03:20:02;;;;;;;7.37;1.90;;;9.50;99.90;;;;;;5029050;28;20200;-74
2022/11/21 03:22:28;;;;;;;6.50;1.75;;;9.50;99.90;;;;;;5011217;28;20587;-75
2022/11/21 03:24:54;;;;;;;3.93;1.20;;;9.50;99.90;;;;;;5044322;28;20237;-75
2022/11/21 03:27:20;;;;;;;4.80;1.40;;;9.50;99.90;;;;;;5028200;28;20170;-74
2022/11/21 03:29:45;;;;;;;7.40;1.63;;;9.50;99.90;;;;;;5027826;28;20172;-74
2022/11/21 03:32:11;;;;;;;6.17;1.43;;;9.50;99.90;;;;;;5027580;28;20186;-75
2022/11/21 03:34:37;;;;;;;8.60;1.63;;;9.50;99.90;;;;;;5029008;28;20237;-75
2022/11/21 03:37:03;;;;;;;7.30;1.50;;;9.50;99.90;;;;;;5046434;28;20208;-75
2022/11/21 03:39:29;;;;;;;4.37;2.00;;;9.60;99.90;;;;;;5032418;28;20177;-74
2022/11/21 03:41:55;;;;;;;5.47;1.30;;;9.60;99.90;;;;;;5027736;28;20573;-75
2022/11/21 03:44:21;;;;;;;8.02;1.65;;;9.60;99.90;;;;;;5028614;28;20267;-75
2022/11/21 03:46:48;;;;;;;4.30;1.23;;;9.60;99.90;;;;;;5029996;28;20252;-75
2022/11/21 03:49:15;;;;;;;3.65;1.10;;;9.60;99.90;;;;;;5031709;28;20169;-75
2022/11/21 03:51:43;;;;;;;5.65;1.25;;;9.60;99.90;;;;;;5034508;28;20170;-75
2022/11/21 03:54:09;;;;;;;7.03;1.48;;;9.60;99.90;;;;;;5032468;28;20625;-75
2022/11/21 03:56:35;;;;;;;3.93;1.20;;;9.60;99.90;;;;;;5031294;28;20202;-75
2022/11/21 03:59:01;;;;;;;3.58;1.02;;;9.60;99.90;;;;;;5032694;28;20573;-75
2022/11/21 04:01:27;;;;;;;6.97;1.60;;;9.70;99.90;;;;;;5031004;28;20173;-75
2022/11/21 04:03:53;;;;;;;11.20;1.60;;;9.60;99.90;;;;;;5032175;28;20622;-75
2022/11/21 04:06:21;;;;;;;4.63;1.70;;;9.60;99.90;;;;;;5030934;28;20630;-75
2022/11/21 04:08:47;;;;;;;6.25;1.63;;;9.60;99.90;;;;;;5032508;28;20170;-75
2022/11/21 04:11:13;;;;;;;6.78;1.73;;;9.60;99.90;;;;;;5032204;28;20162;-75
2022/11/21 04:13:38;;;;;;;5.50;1.87;;;9.60;99.90;;;;;;5032112;28;20709;-75
2022/11/21 04:16:05;;;;;;;5.13;1.63;;;9.60;99.90;;;;;;5032090;28;20260;-75
2022/11/21 04:18:32;;;;;;;7.80;1.98;;;9.70;99.90;;;;;;5031175;28;20197;-75
2022/11/21 04:20:59;;;;;;;4.18;1.30;;;9.60;99.90;;;;;;5032030;28;20253;-75
2022/11/21 04:23:43;;;;;;;11.55;3.13;;;9.60;99.90;;;;;;5031754;28;20582;-75
2022/11/21 04:26:09;;;;;;;7.15;2.20;;;9.60;99.90;;;;;;5014457;28;20665;-75
2022/11/21 04:28:35;;;;;;;4.90;2.20;;;9.60;99.90;;;;;;5015616;28;20247;-75
2022/11/21 04:31:03;;;;;;;4.30;1.60;;;9.60;99.90;;;;;;5047467;28;20214;-75
2022/11/21 04:33:29;;;;;;;4.75;1.80;;;9.60;99.90;;;;;;5031499;28;20252;-75
2022/11/21 04:35:54;;;;;;;7.80;1.97;;;9.60;99.90;;;;;;5030697;28;20817;-75
2022/11/21 04:38:20;;;;;;;6.00;1.90;;;9.60;99.90;;;;;;5047196;28;20579;-75
2022/11/21 04:40:46;;;;;;;8.40;2.20;;;9.70;99.90;;;;;;5030837;28;20599;-75
2022/11/21 04:43:11;;;;;;;4.40;2.00;;;9.60;99.90;;;;;;5032506;28;20181;-75
2022/11/21 04:45:37;;;;;;;7.07;2.10;;;9.70;99.90;;;;;;5031580;28;20255;-75
2022/11/21 04:48:03;;;;;;;7.13;3.00;;;9.70;99.90;;;;;;5031524;28;20170;-75
2022/11/21 04:50:29;;;;;;;6.73;2.33;;;9.70;99.90;;;;;;5031570;28;20173;-75
2022/11/21 04:52:55;;;;;;;4.93;2.13;;;9.70;99.90;;;;;;5030951;28;20197;-74
2022/11/21 04:55:26;;;;;;;6.78;2.10;;;9.70;99.90;;;;;;5031509;28;20284;-75
2022/11/21 04:57:52;;;;;;;9.52;2.38;;;9.70;99.90;;;;;;5030012;28;20492;-75
2022/11/21 05:00:18;;;;;;;5.35;2.00;;;9.70;99.90;;;;;;5031491;28;20540;-75
2022/11/21 05:02:44;;;;;;;5.57;2.10;;;9.70;99.90;;;;;;5013404;28;20178;-75
2022/11/21 05:05:10;;;;;;;5.40;2.15;;;9.70;99.90;;;;;;5032762;28;20209;-74
2022/11/21 05:07:37;;;;;;;4.43;1.90;;;9.70;99.90;;;;;;5013541;28;20173;-75
2022/11/21 05:10:04;;;;;;;4.07;2.03;;;9.70;99.90;;;;;;5013277;28;20169;-75
2022/11/21 05:15:14;;;;;;;4.90;2.30;;;9.70;99.90;;;;;;5030758;28;20272;-75
2022/11/21 05:17:40;;;;;;;8.33;3.00;;;9.80;99.90;;;;;;5031151;28;20166;-74
2022/11/21 05:20:06;;;;;;;4.83;2.93;;;9.80;99.90;;;;;;5030803;28;20920;-75
2022/11/21 05:22:32;;;;;;;7.75;3.85;;;9.80;99.90;;;;;;5030889;28;20162;-75
2022/11/21 05:24:58;;;;;;;5.53;3.17;;;9.80;99.90;;;;;;5029382;28;20201;-75
2022/11/21 05:27:23;;;;;;;5.27;3.50;;;9.80;99.90;;;;;;5031012;28;20177;-74
2022/11/21 05:29:49;;;;;;;5.93;3.40;;;9.80;99.90;;;;;;5029385;28;20181;-76
2022/11/21 05:32:15;;;;;;;15.80;5.13;;;9.90;99.90;;;;;;5030629;28;20831;-75
2022/11/21 05:34:40;;;;;;;5.50;3.60;;;9.90;99.90;;;;;;5029118;28;20642;-76
2022/11/21 05:37:06;;;;;;;8.57;3.70;;;9.90;99.90;;;;;;5030819;28;20172;-75
2022/11/21 05:39:32;;;;;;;8.13;5.07;;;9.90;99.90;;;;;;5030482;28;20165;-75
2022/11/21 05:41:58;;;;;;;8.80;5.40;;;9.90;99.90;;;;;;5034376;28;20170;-75
2022/11/21 05:44:23;;;;;;;5.87;4.10;;;9.90;99.90;;;;;;5030666;28;20193;-75
2022/11/21 05:46:49;;;;;;;6.20;3.80;;;9.90;99.90;;;;;;5030427;28;20193;-75
2022/11/21 05:49:15;;;;;;;10.70;4.60;;;9.90;99.90;;;;;;5045603;28;20180;-75
2022/11/21 05:51:40;;;;;;;4.70;3.83;;;10.00;99.90;;;;;;5002225;28;20224;-76
2022/11/21 05:54:06;;;;;;;6.33;4.87;;;9.90;99.90;;;;;;5010302;28;20186;-75
2022/11/21 05:56:32;;;;;;;6.43;5.40;;;9.90;99.90;;;;;;5010464;28;20889;-75
2022/11/21 05:58:58;;;;;;;6.80;5.37;;;9.90;99.90;;;;;;5009175;28;20681;-75
2022/11/21 06:04:09;;;;;;;7.28;5.40;;;9.90;99.90;;;;;;5009927;28;20624;-75
2022/11/21 06:06:35;;;;;;;6.90;6.13;;;9.90;99.90;;;;;;5010414;28;20173;-75
2022/11/21 06:09:02;;;;;;;8.10;6.20;;;10.00;99.90;;;;;;5010260;28;20692;-75
2022/11/21 06:11:28;;;;;;;9.10;6.35;;;9.90;99.90;;;;;;5007754;28;20185;-74
2022/11/21 06:13:54;;;;;;;10.70;6.10;;;10.00;99.90;;;;;;5002860;28;20182;-75
2022/11/21 06:16:20;;;;;;;11.98;6.68;;;9.90;99.90;;;;;;5010232;28;20170;-74
2022/11/21 06:18:48;;;;;;;7.10;5.20;;;9.90;99.90;;;;;;5010084;28;20166;-74
2022/11/21 06:21:25;;;;;;;6.38;4.95;;;9.90;99.90;;;;;;5009966;28;20664;-75
2022/11/21 06:23:53;;;;;;;8.82;4.82;;;9.90;99.90;;;;;;5009305;28;20178;-74
2022/11/21 06:26:21;;;;;;;9.05;5.90;;;9.90;99.90;;;;;;5010173;28;20541;-74
2022/11/21 06:28:48;;;;;;;6.40;5.00;;;9.90;99.90;;;;;;5008536;28;20173;-74
2022/11/21 06:31:16;;;;;;;9.00;6.30;;;9.90;99.90;;;;;;5009933;28;20166;-75
2022/11/21 06:33:43;;;;;;;6.18;5.40;;;10.00;99.90;;;;;;5004709;28;20754;-74
2022/11/21 06:36:14;;;;;;;7.68;5.20;;;10.00;99.90;;;;;;5008693;28;20162;-74
2022/11/21 06:38:41;;;;;;;6.35;5.32;;;10.00;99.90;;;;;;5009527;28;20225;-74
2022/11/21 06:41:13;;;;;;;11.82;6.90;;;10.00;99.90;;;;;;5009545;28;20171;-74
2022/11/21 06:43:39;;;;;;;5.55;4.85;;;10.00;99.90;;;;;;5009406;28;20273;-74
2022/11/21 06:46:06;;;;;;;6.05;5.30;;;10.00;99.90;;;;;;5009557;28;20209;-73
2022/11/21 06:48:33;;;;;;;8.20;6.30;;;10.00;99.90;;;;;;5009788;28;20696;-73
2022/11/21 06:51:15;;;;;;;5.55;5.05;;;10.00;99.90;;;;;;5008126;28;20305;-73
2022/11/21 06:53:41;;;;;;;7.15;5.47;;;10.00;99.90;;;;;;4989834;28;20167;-74
2022/11/21 06:56:07;;;;;;;6.13;4.30;;;10.00;99.90;;;;;;4991228;28;20182;-73
2022/11/21 06:58:33;;;;;;;5.63;3.73;;;10.00;99.90;;;;;;4990289;28;20171;-73
2022/11/21 07:01:04;;;;;;;9.40;5.00;;;10.00;99.90;;;;;;5003444;28;20502;-74
2022/11/21 07:03:30;;;;;;;5.55;4.18;;;10.00;99.90;;;;;;5007825;28;20612;-75
2022/11/21 07:06:00;;;;;;;5.10;3.70;;;10.00;99.90;;;;;;5007884;28;20206;-76
2022/11/21 07:08:28;;;;;;;5.80;3.35;;;10.00;99.90;;;;;;5009713;28;20574;-76
2022/11/21 07:10:54;;;;;;;8.75;4.35;;;10.00;99.90;;;;;;5009409;28;20197;-76
2022/11/21 07:13:23;;;;;;;6.13;3.60;;;10.00;99.90;;;;;;5005686;28;20903;-75
2022/11/21 07:15:52;;;;;;;6.97;4.00;;;10.00;99.90;;;;;;5008732;28;20682;-77
2022/11/21 07:18:19;;;;;;;7.82;4.10;;;10.00;99.90;;;;;;5007585;28;20182;-75
2022/11/21 07:20:46;;;;;;;3.88;2.38;;;10.00;99.90;;;;;;5008734;28;20202;-76
2022/11/21 07:23:11;;;;;;;7.60;3.85;;;10.00;99.90;;;;;;5011627;28;20182;-75
2022/11/21 07:25:38;;;;;;;4.77;2.60;;;10.00;99.90;;;;;;5011425;28;20217;-75
2022/11/21 07:28:06;;;;;;;5.13;3.30;;;10.10;99.90;;;;;;5011400;28;20692;-75
2022/11/21 07:30:32;;;;;;;4.82;3.00;;;10.10;99.90;;;;;;5012140;28;20205;-74
2022/11/21 07:32:59;;;;;;;5.50;3.80;;;10.10;99.90;;;;;;5016750;28;20531;-74
2022/11/21 07:35:25;;;;;;;6.60;3.88;;;10.10;99.90;;;;;;5013807;28;20620;-75
2022/11/21 07:37:52;;;;;;;8.23;3.35;;;10.10;99.90;;;;;;5011014;28;20709;-75
2022/11/21 07:40:18;;;;;;;4.65;3.85;;;10.20;99.90;;;;;;5012575;28;20638;-75
2022/11/21 07:42:43;;;;;;;4.70;3.33;;;10.20;99.90;;;;;;5010381;28;20171;-75
2022/11/21 07:45:11;;;;;;;5.50;3.63;;;10.20;99.90;;;;;;5010820;28;21298;-74
2022/11/21 07:47:36;;;;;;;5.65;3.30;;;10.20;99.90;;;;;;5010829;28;20626;-74
2022/11/21 07:50:04;;;;;;;7.80;3.13;;;10.30;99.90;;;;;;5012067;28;20544;-74
2022/11/21 07:52:29;;;;;;;7.60;4.10;;;10.30;99.90;;;;;;5012384;28;20581;-74
2022/11/21 07:54:56;;;;;;;7.80;3.77;;;10.30;99.90;;;;;;5009852;28;20214;-74
2022/11/21 07:57:22;;;;;;;6.13;3.80;;;10.40;99.90;;;;;;5013034;28;20596;-74
2022/11/21 07:59:48;;;;;;;11.05;3.55;;;10.40;99.90;;;;;;5014090;28;20174;-75
2022/11/21 08:02:25;;;;;;;5.87;3.70;;;10.40;99.90;;;;;;5013225;28;20609;-75
2022/11/21 08:04:51;;;;;;;5.30;3.78;;;10.40;99.90;;;;;;5012581;28;21033;-74
2022/11/21 08:07:18;;;;;;;5.80;3.58;;;10.50;99.90;;;;;;5013552;28;20171;-75
2022/11/21 08:09:44;;;;;;;5.55;3.35;;;10.50;99.90;;;;;;5014185;28;20201;-75
2022/11/21 08:12:11;;;;;;;6.53;3.63;;;10.50;99.90;;;;;;5003018;28;20571;-74
2022/11/21 08:14:37;;;;;;;5.75;3.92;;;10.50;99.90;;;;;;5011033;28;20715;-75
2022/11/21 08:17:04;;;;;;;4.80;3.90;;;10.60;99.90;;;;;;5013508;28;20261;-75
2022/11/21 08:19:30;;;;;;;5.00;3.78;;;10.60;99.90;;;;;;5013903;28;20178;-75
2022/11/21 08:21:56;;;;;;;4.10;3.70;;;10.60;99.90;;;;;;5014147;28;20177;-75
2022/11/21 08:24:21;;;;;;;5.43;3.73;;;10.60;99.90;;;;;;5012097;28;20761;-75
2022/11/21 08:26:47;;;;;;;5.77;3.50;;;10.60;99.90;;;;;;5011639;28;20980;-75
2022/11/21 08:29:14;;;;;;;4.65;3.45;;;10.60;99.90;;;;;;5010517;28;20174;-74
2022/11/21 08:31:41;;;;;;;11.20;6.00;;;10.60;99.90;;;;;;5013672;28;20182;-74
2022/11/21 08:34:07;;;;;;;6.45;4.65;;;10.60;99.90;;;;;;5012593;28;20221;-74
2022/11/21 08:36:33;;;;;;;7.50;4.03;;;10.60;99.90;;;;;;5014028;28;20162;-74
2022/11/21 08:38:59;;;;;;;7.07;4.05;;;10.60;99.90;;;;;;5013617;28;20542;-74
2022/11/21 08:44:09;;;;;;;4.90;4.00;;;10.60;99.90;;;;;;5011555;28;20202;-74
2022/11/21 08:46:36;;;;;;;8.10;3.87;;;10.60;99.90;;;;;;5025264;28;20633;-74
2022/11/21 08:49:05;;;;;;;5.40;4.00;;;10.60;99.90;;;;;;5026887;28;20577;-74
2022/11/21 08:51:32;;;;;;;7.13;4.50;;;10.60;99.90;;;;;;5008736;28;20171;-74
2022/11/21 08:53:58;;;;;;;7.28;4.30;;;10.60;99.90;;;;;;5006214;28;20167;-75
2022/11/21 08:56:24;;;;;;;5.32;4.22;;;10.60;99.90;;;;;;5012923;28;20182;-74
2022/11/21 08:58:50;;;;;;;9.13;4.60;;;10.60;99.90;;;;;;5013600;28;20178;-74
2022/11/21 09:01:16;;;;;;;5.03;3.73;;;10.60;99.90;;;;;;5012922;28;20586;-73
2022/11/21 09:03:41;;;;;;;5.00;4.40;;;10.60;99.90;;;;;;5013753;28;20574;-73
2022/11/21 09:06:11;;;;;;;6.27;4.70;;;10.70;99.90;;;;;;5017948;28;20206;-74
2022/11/21 09:08:36;;;;;;;3.85;3.55;;;10.70;99.90;;;;;;5013026;28;20660;-74
2022/11/21 09:11:07;;;;;;;5.73;5.17;;;10.70;99.90;;;;;;5013078;28;20245;-74
2022/11/21 09:13:34;;;;;;;7.88;5.03;;;10.70;99.90;;;;;;5012527;28;20620;-74
2022/11/21 09:18:45;;;;;;;5.63;4.53;;;10.80;99.90;;;;;;5011593;28;20908;-75
2022/11/21 09:21:15;;;;;;;6.00;5.07;;;10.90;99.90;;;;;;5011529;28;20258;-76
2022/11/21 09:23:41;;;;;;;10.73;5.65;;;10.90;99.90;;;;;;5012353;28;20571;-76
2022/11/21 09:26:07;;;;;;;7.35;5.60;;;11.00;99.90;;;;;;5015178;28;20203;-76
2022/11/21 09:28:34;;;;;;;8.67;6.00;;;11.10;99.90;;;;;;5011372;28;20166;-75
2022/11/21 09:31:02;;;;;;;7.50;5.28;;;11.20;99.90;;;;;;5011163;28;20573;-75
2022/11/21 09:33:28;;;;;;;6.22;4.95;;;11.20;99.90;;;;;;5012586;28;20169;-76
2022/11/21 09:35:53;;;;;;;8.30;6.10;;;11.30;99.90;;;;;;5011009;28;20191;-76
2022/11/21 09:38:19;;;;;;;6.50;5.77;;;11.40;99.90;;;;;;5012738;28;20989;-75
2022/11/21 09:40:47;;;;;;;8.67;5.63;;;11.60;99.90;;;;;;5011005;28;20178;-75
2022/11/21 09:43:48;;;;;;;7.53;5.15;;;11.70;99.90;;;;;;5012143;28;20177;-74
2022/11/21 09:46:17;;;;;;;8.05;4.25;;;11.80;99.90;;;;;;5010947;28;20242;-75
2022/11/21 09:48:50;;;;;;;4.82;3.67;;;12.10;99.90;;;;;;5011435;28;20166;-74
2022/11/21 09:51:19;;;;;;;8.65;3.92;;;12.20;99.90;;;;;;5010288;28;20213;-74
2022/11/21 09:54:04;;;;;;;5.43;3.47;;;12.30;99.90;;;;;;5012241;28;20281;-79
2022/11/21 09:56:35;;;;;;;4.40;3.08;;;12.40;99.90;;;;;;5008863;28;20171;-80
2022/11/21 09:59:36;;;;;;;8.88;3.53;;;12.60;99.90;;;;;;5010024;28;20181;-79
2022/11/21 10:02:09;;;;;;;3.65;2.80;;;12.70;99.90;;;;;;5009238;28;20189;-80
2022/11/21 10:04:35;;;;;;;4.67;2.60;;;12.90;99.90;;;;;;5013365;28;20280;-80
2022/11/21 10:07:10;;;;;;;3.60;2.73;;;13.00;99.90;;;;;;5023426;28;20604;-80
2022/11/21 10:09:53;;;;;;;3.97;2.92;;;13.00;99.90;;;;;;5032406;28;20567;-81
2022/11/21 10:12:58;;;;;;;4.07;2.60;;;13.00;99.90;;;;;;5031254;28;20392;-80
2022/11/21 10:15:53;;;;;;;4.85;2.28;;;13.10;99.90;;;;;;5031930;28;20237;-80
2022/11/21 10:18:54;;;;;;;5.67;3.17;;;13.10;99.90;;;;;;5029904;28;20621;-79
2022/11/21 10:21:26;;;;;;;4.90;2.53;;;13.10;99.90;;;;;;5029503;28;20589;-80
2022/11/21 10:24:12;;;;;;;5.38;1.98;;;13.10;99.90;;;;;;5012331;28;20620;-81
2022/11/21 10:27:20;;;;;;;6.35;2.20;;;13.10;99.90;;;;;;5013674;28;20213;-83
2022/11/21 10:29:58;;;;;;;6.63;2.17;;;13.10;99.90;;;;;;4972590;28;20190;-83
2022/11/21 10:32:33;;;;;;;3.57;1.83;;;13.10;99.90;;;;;;5007230;28;20688;-82
2022/11/21 10:35:12;;;;;;;4.30;1.90;;;13.10;99.90;;;;;;5017726;28;20600;-83
2022/11/21 10:37:42;;;;;;;6.50;2.63;;;13.20;99.90;;;;;;5018322;28;21230;-79
2022/11/21 10:40:18;;;;;;;4.38;2.22;;;13.30;99.90;;;;;;5020479;28;20207;-81
2022/11/21 10:42:56;;;;;;;4.40;1.43;;;13.40;99.90;;;;;;5016520;28;20196;-80
2022/11/21 10:45:23;;;;;;;3.43;1.20;;;13.50;99.90;;;;;;5016262;28;20708;-81
2022/11/21 10:47:50;;;;;;;6.00;1.13;;;13.60;99.90;;;;;;5016297;28;20585;-80
2022/11/21 10:50:45;;;;;;;2.93;1.10;;;13.80;99.90;;;;;;5018687;28;21121;-81
2022/11/21 10:56:18;;;;;;;4.80;1.90;;;13.90;99.90;;;;;;5015700;28;20669;-81
2022/11/21 10:58:46;;;;;;;2.90;1.43;;;14.00;99.90;;;;;;5016900;28;20612;-82
2022/11/21 11:01:22;;;;;;;2.27;1.00;;;14.00;99.90;;;;;;5017937;28;20632;-80
2022/11/21 11:04:10;;;;;;;3.37;1.30;;;14.00;99.90;;;;;;5012561;28;20573;-79
2022/11/21 11:06:42;;;;;;;1.87;1.10;;;14.00;99.90;;;;;;5012343;28;20563;-78
2022/11/21 11:09:29;;;;;;;3.33;0.83;;;13.90;99.90;;;;;;4993974;28;20620;-78
2022/11/21 11:12:19;;;;;;;2.53;1.30;;;13.80;99.90;;;;;;5011677;28;20923;-79
2022/11/21 11:14:51;;;;;;;2.30;0.80;;;13.80;99.90;;;;;;5012356;28;20700;-81
2022/11/21 11:17:27;;;;;;;2.47;0.90;;;13.70;99.90;;;;;;5015121;28;20979;-80
2022/11/21 11:20:26;;;;;;;6.63;1.40;;;13.60;99.90;;;;;;5011617;28;20184;-80
2022/11/21 11:22:52;;;;;;;3.95;1.30;;;13.50;99.90;;;;;;5011524;28;20688;-82
2022/11/21 11:25:18;;;;;;;3.73;1.10;;;13.50;99.90;;;;;;5010136;28;20280;-80
2022/11/21 11:27:44;;;;;;;2.97;0.90;;;13.50;99.90;;;;;;5010776;28;20684;-82
2022/11/21 11:30:14;;;;;;;3.30;0.90;;;13.60;99.90;;;;;;5011438;28;20170;-80
2022/11/21 11:32:40;;;;;;;2.30;0.90;;;13.60;99.90;;;;;;5011241;28;20167;-81
2022/11/21 11:35:12;;;;;;;3.83;0.70;;;13.70;99.90;;;;;;5009801;28;20712;-81
2022/11/21 11:37:42;;;;;;;2.87;0.90;;;13.80;99.90;;;;;;5011531;28;20194;-80
2022/11/21 11:40:23;;;;;;;2.80;0.80;;;13.80;99.90;;;;;;5009922;28;20582;-80
2022/11/21 11:47:29;;;;;;;2.15;0.73;;;13.80;99.90;;;;;;5011002;28;20998;-75
2022/11/21 11:50:09;;;;;;;2.93;0.70;;;13.80;99.90;;;;;;5008765;28;20248;-75
2022/11/21 11:52:25;;;;;;;3.43;0.80;;;13.80;99.90;;;;;;5008276;28;20585;-74
2022/11/21 11:54:58;;;;;;;5.87;0.70;;;13.90;99.90;;;;;;5011184;28;20641;-75
2022/11/21 11:57:25;;;;;;;4.37;1.00;;;13.90;99.90;;;;;;5008696;28;20620;-74
2022/11/21 12:00:20;;;;;;;2.57;0.83;;;13.90;99.90;;;;;;5009269;28;20645;-74
2022/11/21 12:02:50;;;;;;;4.23;0.70;;;13.90;99.90;;;;;;5010085;28;20592;-74
2022/11/21 12:05:23;;;;;;;1.70;0.73;;;13.90;99.90;;;;;;5010548;28;20640;-75
2022/11/21 12:08:09;;;;;;;1.97;0.63;;;13.80;99.90;;;;;;5010271;28;20638;-75
2022/11/21 12:13:36;;;;;;;2.07;0.60;;;13.60;99.90;;;;;;5011665;28;20973;-75
2022/11/21 12:16:09;;;;;;;2.60;0.80;;;13.40;99.90;;;;;;5013972;28;20616;-74
2022/11/21 12:19:04;;;;;;;2.40;0.80;;;13.30;99.90;;;;;;4996377;28;20212;-74
2022/11/21 12:21:30;;;;;;;2.93;0.90;;;13.10;99.90;;;;;;5014161;28;20177;-75
2022/11/21 12:23:57;;;;;;;4.30;1.25;;;13.00;99.90;;;;;;5012588;28;20569;-75
2022/11/21 12:26:43;;;;;;;3.23;2.03;;;12.90;99.90;;;;;;5013755;28;20221;-75
2022/11/21 12:29:33;;;;;;;2.90;1.15;;;12.90;99.90;;;;;;5015938;28;20573;-75
2022/11/21 12:31:59;;;;;;;2.55;1.27;;;12.80;99.90;;;;;;4996096;28;20582;-76
2022/11/21 12:34:49;;;;;;;3.20;0.90;;;12.80;99.90;;;;;;5012301;28;20194;-75
2022/11/21 12:37:33;;;;;;;4.38;1.00;;;12.70;99.90;;;;;;5013516;28;20170;-75
2022/11/21 12:40:25;;;;;;;2.95;0.70;;;12.60;99.90;;;;;;5012393;28;20973;-75
2022/11/21 12:43:18;;;;;;;3.42;1.20;;;12.50;99.90;;;;;;5012915;28;20197;-75
2022/11/21 12:45:47;;;;;;;3.55;1.90;;;12.40;99.90;;;;;;5013425;28;20213;-74
2022/11/21 12:54:32;;;;;;;2.17;1.00;;;12.20;99.90;;;;;;4995074;28;20198;-74
2022/11/21 12:57:13;;;;;;;3.85;1.10;;;12.10;99.90;;;;;;4993902;28;20179;-75
2022/11/21 12:59:46;;;;;;;2.60;1.00;;;12.10;99.90;;;;;;4993213;28;20171;-74
2022/11/21 13:02:36;;;;;;;3.28;0.95;;;12.10;99.90;;;;;;4993189;28;20266;-75
2022/11/21 13:05:04;;;;;;;1.77;0.80;;;12.10;99.90;;;;;;4992890;28;20279;-75
2022/11/21 13:07:31;;;;;;;2.75;0.90;;;12.20;99.90;;;;;;4992852;28;20690;-75
2022/11/21 13:09:59;;;;;;;2.38;0.90;;;12.20;99.90;;;;;;4992964;28;20166;-75
2022/11/21 13:12:43;;;;;;;4.55;0.80;;;12.20;99.90;;;;;;5008268;28;20171;-75
2022/11/21 13:15:25;;;;;;;3.13;0.73;;;12.10;99.90;;;;;;5006453;28;20221;-76
2022/11/21 13:18:20;;;;;;;1.60;0.65;;;12.10;99.90;;;;;;5009890;28;20175;-75
2022/11/21 13:20:48;;;;;;;3.28;0.85;;;12.10;99.90;;;;;;5011219;28;20178;-76
2022/11/21 13:23:37;;;;;;;2.35;1.02;;;12.10;99.90;;;;;;5011374;28;20170;-76
2022/11/21 13:26:25;;;;;;;3.67;0.93;;;12.00;99.90;;;;;;5002561;28;20210;-75
2022/11/21 13:29:13;;;;;;;5.65;1.65;;;11.90;99.90;;;;;;5012702;28;20162;-75
2022/11/21 13:31:42;;;;;;;3.95;1.27;;;11.90;99.90;;;;;;5010627;28;20166;-76
2022/11/21 13:34:36;;;;;;;3.08;1.00;;;11.80;99.90;;;;;;5012556;28;20186;-75